Time;durP1;ratioP1;P1;durP2;ratioP2;P2;SDS_P1;SDS_P2;PMS_P1;PMS_P2;Temp;Humidity;BMP_temperature;BMP_pressure;BME280_temperature;BME280_humidity;BME280_pressure;Samples;Min_cycle;Max_cycle;Signal;HPM_P1;HPM_P2
2022/12/01 00:01:15;;;;;;;36.83;22.97;;;1.50;99.90;;;;;;5076042;28;20258;-72
2022/12/01 00:03:41;;;;;;;37.27;23.50;;;1.50;99.90;;;;;;5076203;28;20660;-72
2022/12/01 00:06:14;;;;;;;35.07;21.77;;;1.60;99.90;;;;;;5075920;28;20197;-72
2022/12/01 00:10:24;;;;;;;34.77;23.20;;;1.60;99.90;;;;;;5076012;28;20266;-71
2022/12/01 00:11:26;;;;;;;37.73;22.37;;;1.60;99.90;;;;;;5075505;28;20252;-72
2022/12/01 00:13:53;;;;;;;36.53;22.97;;;1.50;99.90;;;;;;5075583;28;20298;-73
2022/12/01 00:16:20;;;;;;;36.57;23.13;;;1.50;99.90;;;;;;5075769;28;20205;-73
2022/12/01 00:18:49;;;;;;;34.57;22.33;;;1.60;99.90;;;;;;5076336;28;20185;-73
2022/12/01 00:21:19;;;;;;;35.80;22.83;;;1.60;99.90;;;;;;5075621;28;20204;-72
2022/12/01 00:23:47;;;;;;;37.00;22.80;;;1.60;99.90;;;;;;5075583;28;20197;-73
2022/12/01 00:26:13;;;;;;;34.57;23.07;;;1.60;99.90;;;;;;5075605;28;20288;-73
2022/12/01 00:28:40;;;;;;;37.07;23.60;;;1.50;99.90;;;;;;5075495;28;20205;-73
2022/12/01 00:31:07;;;;;;;35.43;22.80;;;1.50;99.90;;;;;;5075556;28;20279;-73
2022/12/01 00:33:34;;;;;;;35.53;22.50;;;1.50;99.90;;;;;;5075286;28;20627;-73
2022/12/01 00:36:02;;;;;;;36.33;22.70;;;1.50;99.90;;;;;;5075564;28;20246;-73
2022/12/01 00:38:30;;;;;;;32.67;21.90;;;1.50;99.90;;;;;;5075403;28;20197;-73
2022/12/01 00:40:57;;;;;;;35.90;21.30;;;1.50;99.90;;;;;;5075217;28;20198;-73
2022/12/01 00:43:24;;;;;;;32.17;20.37;;;1.50;99.90;;;;;;5075403;28;20193;-73
2022/12/01 00:45:50;;;;;;;33.97;21.83;;;1.50;99.90;;;;;;5075175;28;20235;-73
2022/12/01 00:48:17;;;;;;;35.60;22.50;;;1.50;99.90;;;;;;5075097;28;20193;-73
2022/12/01 00:50:45;;;;;;;33.17;20.67;;;1.50;99.90;;;;;;5075163;28;20582;-73
2022/12/01 00:53:11;;;;;;;34.23;21.27;;;1.50;99.90;;;;;;5075149;28;20193;-73
2022/12/01 00:55:40;;;;;;;32.17;20.93;;;1.50;99.90;;;;;;5074560;28;20197;-73
2022/12/01 00:58:07;;;;;;;33.07;21.43;;;1.60;99.90;;;;;;5076003;28;20197;-73
2022/12/01 01:00:37;;;;;;;34.07;20.97;;;1.50;99.90;;;;;;5075425;28;20225;-73
2022/12/01 01:03:04;;;;;;;32.13;21.17;;;1.50;99.90;;;;;;5075052;28;20283;-73
2022/12/01 01:05:30;;;;;;;32.67;20.33;;;1.50;99.90;;;;;;5074894;28;20197;-73
2022/12/01 01:07:57;;;;;;;31.17;19.90;;;1.50;99.90;;;;;;5074282;28;20358;-73
2022/12/01 01:10:24;;;;;;;32.53;21.00;;;1.50;99.90;;;;;;5074911;28;20225;-73
2022/12/01 01:12:52;;;;;;;33.47;21.30;;;1.50;99.90;;;;;;5074817;28;20653;-73
2022/12/01 01:15:19;;;;;;;31.70;19.33;;;1.50;99.90;;;;;;5074871;28;20231;-73
2022/12/01 01:17:45;;;;;;;31.73;20.77;;;1.50;99.90;;;;;;5074867;28;20201;-73
2022/12/01 01:20:13;;;;;;;32.70;20.13;;;1.50;99.90;;;;;;5074764;28;20660;-73
2022/12/01 01:22:39;;;;;;;30.73;19.40;;;1.50;99.90;;;;;;5074512;28;20243;-73
2022/12/01 01:25:07;;;;;;;31.80;20.47;;;1.50;99.90;;;;;;5074753;28;20255;-73
2022/12/01 01:27:34;;;;;;;30.60;19.30;;;1.50;99.90;;;;;;5074526;28;20205;-73
2022/12/01 01:30:03;;;;;;;30.60;19.67;;;1.50;99.90;;;;;;5074411;28;20225;-73
2022/12/01 01:32:30;;;;;;;30.27;19.90;;;1.60;99.90;;;;;;5074205;28;20721;-73
2022/12/01 01:34:56;;;;;;;31.77;20.83;;;1.60;99.90;;;;;;5074898;28;20196;-73
2022/12/01 01:37:23;;;;;;;29.30;18.97;;;1.60;99.90;;;;;;5074118;28;20201;-73
2022/12/01 01:39:50;;;;;;;31.10;20.03;;;1.60;99.90;;;;;;5074469;28;20610;-73
2022/12/01 01:42:19;;;;;;;29.57;19.07;;;1.60;99.90;;;;;;5074336;28;20649;-72
2022/12/01 01:44:49;;;;;;;32.93;20.83;;;1.60;99.90;;;;;;5074287;28;20208;-72
2022/12/01 01:47:20;;;;;;;31.03;19.40;;;1.60;99.90;;;;;;5073920;28;20218;-72
2022/12/01 01:49:47;;;;;;;31.93;19.90;;;1.60;99.90;;;;;;5073738;28;20258;-72
2022/12/01 01:52:14;;;;;;;30.63;18.93;;;1.60;99.90;;;;;;5074166;28;20583;-72
2022/12/01 01:54:44;;;;;;;30.63;20.30;;;1.60;99.90;;;;;;5073880;28;20197;-72
2022/12/01 01:57:15;;;;;;;30.97;19.90;;;1.60;99.90;;;;;;5073793;28;20243;-72
2022/12/01 01:59:45;;;;;;;28.03;18.27;;;1.60;99.90;;;;;;5073822;28;20197;-72
2022/12/01 02:02:13;;;;;;;29.13;18.40;;;1.60;99.90;;;;;;5073638;28;20607;-72
2022/12/01 02:04:45;;;;;;;28.50;19.00;;;1.60;99.90;;;;;;5073703;28;20197;-72
2022/12/01 02:07:13;;;;;;;31.80;19.30;;;1.60;99.90;;;;;;5073576;28;20255;-72
2022/12/01 02:09:40;;;;;;;28.13;18.20;;;1.60;99.90;;;;;;5073975;28;20201;-72
2022/12/01 02:12:18;;;;;;;28.87;18.43;;;1.60;99.90;;;;;;5073944;28;20282;-72
2022/12/01 02:14:59;;;;;;;30.63;18.87;;;1.60;99.90;;;;;;5073747;28;20200;-72
2022/12/01 02:17:35;;;;;;;28.87;18.93;;;1.60;99.90;;;;;;5073805;28;20208;-72
2022/12/01 02:20:31;;;;;;;29.43;18.43;;;1.50;99.90;;;;;;5072929;28;20246;-72
2022/12/01 02:23:24;;;;;;;30.20;19.43;;;1.60;99.90;;;;;;5073465;28;20193;-72
2022/12/01 02:26:06;;;;;;;28.33;17.80;;;1.60;99.90;;;;;;5073900;28;20200;-72
2022/12/01 02:29:02;;;;;;;31.03;19.50;;;1.60;99.90;;;;;;5073622;28;20599;-72
2022/12/01 02:31:39;;;;;;;29.97;18.80;;;1.60;99.90;;;;;;5073407;28;20554;-72
2022/12/01 02:34:13;;;;;;;29.67;18.90;;;1.60;99.90;;;;;;5074075;28;20197;-72
2022/12/01 02:36:46;;;;;;;30.30;19.20;;;1.60;99.90;;;;;;5073452;28;20657;-72
2022/12/01 02:39:21;;;;;;;29.70;18.47;;;1.60;99.90;;;;;;5073508;28;20196;-72
2022/12/01 02:41:52;;;;;;;26.63;18.67;;;1.60;99.90;;;;;;5073039;28;20727;-72
2022/12/01 02:44:26;;;;;;;30.40;18.63;;;1.60;99.90;;;;;;5073494;28;20197;-72
2022/12/01 02:46:59;;;;;;;27.60;18.23;;;1.60;99.90;;;;;;5073407;28;20201;-72
2022/12/01 02:49:29;;;;;;;30.33;18.43;;;1.60;99.90;;;;;;5073389;28;20243;-72
2022/12/01 02:51:58;;;;;;;29.23;18.10;;;1.60;99.90;;;;;;5073174;28;20270;-72
2022/12/01 02:54:29;;;;;;;26.77;17.80;;;1.70;99.90;;;;;;5073402;28;20227;-72
2022/12/01 02:56:55;;;;;;;28.37;17.63;;;1.60;99.90;;;;;;5073304;28;20197;-73
2022/12/01 02:59:22;;;;;;;28.27;18.50;;;1.70;99.90;;;;;;5073370;28;20611;-72
2022/12/01 03:02:03;;;;;;;28.53;18.47;;;1.70;99.90;;;;;;5073375;28;20201;-72
2022/12/01 03:04:52;;;;;;;28.03;17.37;;;1.70;99.90;;;;;;5073248;28;20216;-73
2022/12/01 03:07:39;;;;;;;30.40;19.20;;;1.70;99.90;;;;;;5071335;28;20279;-72
2022/12/01 03:10:13;;;;;;;28.57;18.70;;;1.70;99.90;;;;;;5073402;28;20254;-72
2022/12/01 03:12:50;;;;;;;28.90;18.07;;;1.70;99.90;;;;;;5073793;28;20259;-72
2022/12/01 03:15:28;;;;;;;29.33;19.60;;;1.70;99.90;;;;;;5073097;28;20201;-72
2022/12/01 03:18:01;;;;;;;29.03;17.90;;;1.80;99.90;;;;;;5073179;28;20200;-71
2022/12/01 03:20:33;;;;;;;30.30;19.00;;;1.70;99.90;;;;;;5072965;28;20231;-72
2022/12/01 03:23:06;;;;;;;33.30;20.37;;;1.70;99.90;;;;;;5073368;28;20197;-73
2022/12/01 03:25:33;;;;;;;26.90;17.53;;;1.80;99.90;;;;;;5073046;28;20284;-72
2022/12/01 03:28:04;;;;;;;29.67;19.30;;;1.70;99.90;;;;;;5073061;28;20193;-73
2022/12/01 03:30:33;;;;;;;30.17;19.17;;;1.70;99.90;;;;;;5074636;28;20296;-72
2022/12/01 03:33:08;;;;;;;31.20;19.03;;;1.80;99.90;;;;;;5076693;28;20208;-73
2022/12/01 03:35:37;;;;;;;29.53;18.63;;;1.80;99.90;;;;;;5076781;28;20196;-73
2022/12/01 03:38:08;;;;;;;26.33;17.53;;;1.70;99.90;;;;;;5076570;28;20204;-72
2022/12/01 03:40:37;;;;;;;27.70;17.50;;;1.80;99.90;;;;;;5076646;28;20200;-72
2022/12/01 03:43:09;;;;;;;29.10;17.93;;;1.80;99.90;;;;;;5076714;28;20197;-72
2022/12/01 03:45:43;;;;;;;28.90;18.53;;;1.80;99.90;;;;;;5077144;28;20606;-73
2022/12/01 03:48:11;;;;;;;27.93;18.40;;;1.80;99.90;;;;;;5077105;28;20201;-73
2022/12/01 03:50:47;;;;;;;28.40;19.07;;;1.80;99.90;;;;;;5076922;28;20263;-73
2022/12/01 03:53:21;;;;;;;27.60;17.60;;;1.80;99.90;;;;;;5077404;28;20246;-72
2022/12/01 03:55:58;;;;;;;29.07;18.10;;;1.80;99.90;;;;;;5080533;28;20204;-72
2022/12/01 03:58:31;;;;;;;29.07;18.17;;;1.80;99.90;;;;;;5083116;28;20721;-73
2022/12/01 04:00:58;;;;;;;29.80;18.63;;;1.80;99.90;;;;;;5084939;28;20747;-73
2022/12/01 04:03:27;;;;;;;30.43;18.70;;;1.80;99.90;;;;;;5081755;28;20197;-72
2022/12/01 04:05:54;;;;;;;30.37;19.23;;;1.80;99.90;;;;;;5078291;28;20232;-73
2022/12/01 04:08:21;;;;;;;29.47;19.13;;;1.70;99.90;;;;;;5076531;28;20278;-73
2022/12/01 04:10:47;;;;;;;30.00;18.43;;;1.80;99.90;;;;;;5076297;28;20220;-72
2022/12/01 04:13:21;;;;;;;28.10;18.47;;;1.80;99.90;;;;;;5076238;28;20197;-72
2022/12/01 04:15:48;;;;;;;30.97;19.17;;;1.80;99.90;;;;;;5076117;28;20636;-72
2022/12/01 04:18:14;;;;;;;31.90;20.47;;;1.80;99.90;;;;;;5076314;28;20193;-72
2022/12/01 04:20:43;;;;;;;31.20;19.90;;;1.80;99.90;;;;;;5076375;28;20197;-72
2022/12/01 04:23:09;;;;;;;30.73;19.00;;;1.80;99.90;;;;;;5075871;28;20201;-72
2022/12/01 04:25:36;;;;;;;31.63;18.97;;;1.80;99.90;;;;;;5076162;28;20198;-72
2022/12/01 04:28:02;;;;;;;28.80;18.67;;;1.80;99.90;;;;;;5076175;28;20201;-72
2022/12/01 04:30:29;;;;;;;33.23;20.77;;;1.80;99.90;;;;;;5076497;28;20201;-74
2022/12/01 04:32:57;;;;;;;30.20;19.80;;;1.80;99.90;;;;;;5076696;28;20301;-74
2022/12/01 04:35:24;;;;;;;26.97;18.50;;;1.80;99.90;;;;;;5076655;28;20193;-73
2022/12/01 04:37:52;;;;;;;29.60;18.93;;;1.80;99.90;;;;;;5076700;28;20192;-73
2022/12/01 04:40:20;;;;;;;30.13;19.33;;;1.80;99.90;;;;;;5076867;28;20193;-73
2022/12/01 04:42:47;;;;;;;28.30;18.37;;;1.70;99.90;;;;;;5075633;28;20280;-74
2022/12/01 04:45:13;;;;;;;29.77;18.47;;;1.80;99.90;;;;;;5076674;28;20204;-73
2022/12/01 04:47:40;;;;;;;28.57;18.67;;;1.80;99.90;;;;;;5076504;28;20197;-73
2022/12/01 04:50:07;;;;;;;28.27;18.43;;;1.70;99.90;;;;;;5076343;28;20254;-73
2022/12/01 04:52:37;;;;;;;31.80;19.10;;;1.70;99.90;;;;;;5077291;28;20229;-73
2022/12/01 04:55:07;;;;;;;32.50;19.33;;;1.70;99.90;;;;;;5076099;28;20729;-73
2022/12/01 04:57:33;;;;;;;30.63;18.87;;;1.70;99.90;;;;;;5076501;28;20284;-73
2022/12/01 05:00:00;;;;;;;32.53;19.53;;;1.70;99.90;;;;;;5076190;28;20193;-72
2022/12/01 05:02:27;;;;;;;27.87;18.77;;;1.70;99.90;;;;;;5075397;28;20278;-73
2022/12/01 05:04:53;;;;;;;31.70;19.33;;;1.70;99.90;;;;;;5076290;28;20702;-73
2022/12/01 05:07:20;;;;;;;28.40;19.40;;;1.70;99.90;;;;;;5076180;28;20278;-73
2022/12/01 05:09:46;;;;;;;30.10;20.10;;;1.70;99.90;;;;;;5075632;28;20247;-73
2022/12/01 05:12:16;;;;;;;30.53;19.03;;;1.70;99.90;;;;;;5075650;28;20275;-73
2022/12/01 05:14:42;;;;;;;31.37;20.07;;;1.70;99.90;;;;;;5075053;28;20687;-73
2022/12/01 05:17:09;;;;;;;32.07;19.90;;;1.80;99.90;;;;;;5075163;28;20201;-73
2022/12/01 05:22:20;;;;;;;30.33;19.27;;;1.70;99.90;;;;;;5074646;28;20196;-73
2022/12/01 05:24:46;;;;;;;32.67;19.53;;;1.80;99.90;;;;;;5075690;28;20259;-73
2022/12/01 05:27:14;;;;;;;30.97;19.77;;;1.80;99.90;;;;;;5075090;28;20657;-72
2022/12/01 05:29:41;;;;;;;30.90;19.37;;;1.80;99.90;;;;;;5074701;28;20250;-74
2022/12/01 05:32:07;;;;;;;30.27;19.37;;;1.80;99.90;;;;;;5075375;28;20232;-73
2022/12/01 05:34:34;;;;;;;30.80;19.53;;;1.80;99.90;;;;;;5074335;28;20254;-73
2022/12/01 05:37:01;;;;;;;30.13;19.63;;;1.80;99.90;;;;;;5074362;28;20238;-72
2022/12/01 05:39:27;;;;;;;33.03;20.47;;;1.80;99.90;;;;;;5074245;28;20723;-72
2022/12/01 05:41:54;;;;;;;31.00;19.33;;;1.80;99.90;;;;;;5074861;28;20718;-73
2022/12/01 05:44:22;;;;;;;28.93;18.50;;;1.80;99.90;;;;;;5074847;28;20717;-72
2022/12/01 05:46:49;;;;;;;29.13;18.80;;;1.80;99.90;;;;;;5074253;28;20296;-72
2022/12/01 05:49:16;;;;;;;30.67;19.37;;;1.90;99.90;;;;;;5074078;28;20223;-72
2022/12/01 05:51:42;;;;;;;31.30;19.33;;;1.80;99.90;;;;;;5074472;28;20278;-72
2022/12/01 05:54:09;;;;;;;33.17;20.00;;;1.80;99.90;;;;;;5075289;28;20201;-73
2022/12/01 05:56:36;;;;;;;30.30;19.67;;;1.80;99.90;;;;;;5074594;28;20254;-73
2022/12/01 05:59:02;;;;;;;30.87;19.30;;;1.90;99.90;;;;;;5074414;28;20197;-73
2022/12/01 06:01:30;;;;;;;32.93;19.70;;;1.90;99.90;;;;;;5074908;28;20607;-74
2022/12/01 06:03:57;;;;;;;32.00;19.73;;;1.90;99.90;;;;;;5074147;28;20196;-73
2022/12/01 06:06:24;;;;;;;32.87;20.13;;;1.80;99.90;;;;;;5074206;28;20230;-73
2022/12/01 06:08:50;;;;;;;35.90;20.97;;;1.80;99.90;;;;;;5074275;28;20201;-74
2022/12/01 06:11:17;;;;;;;32.03;20.07;;;1.80;99.90;;;;;;5074133;28;20648;-73
2022/12/01 06:13:44;;;;;;;30.17;19.37;;;1.80;99.90;;;;;;5074319;28;20701;-73
2022/12/01 06:16:10;;;;;;;32.77;20.40;;;1.80;99.90;;;;;;5074750;28;20222;-74
2022/12/01 06:18:39;;;;;;;31.40;18.77;;;1.80;99.90;;;;;;5074718;28;20197;-74
2022/12/01 06:21:06;;;;;;;34.63;20.60;;;1.80;99.90;;;;;;5074549;28;20263;-74
2022/12/01 06:23:34;;;;;;;34.80;20.80;;;1.80;99.90;;;;;;5074725;28;20197;-73
2022/12/01 06:26:00;;;;;;;32.03;20.07;;;1.80;99.90;;;;;;5074621;28;20250;-73
2022/12/01 06:28:27;;;;;;;32.17;20.57;;;1.80;99.90;;;;;;5074693;28;20201;-74
2022/12/01 06:30:54;;;;;;;29.53;19.83;;;1.80;99.90;;;;;;5074462;28;20250;-73
2022/12/01 06:33:20;;;;;;;34.73;21.00;;;1.80;99.90;;;;;;5074779;28;20220;-73
2022/12/01 06:35:48;;;;;;;34.27;20.50;;;1.80;99.90;;;;;;5074674;28;20201;-73
2022/12/01 06:38:15;;;;;;;29.07;20.00;;;1.80;99.90;;;;;;5074491;28;20200;-73
2022/12/01 06:40:43;;;;;;;33.40;20.33;;;1.70;99.90;;;;;;5074428;28;20197;-74
2022/12/01 06:43:10;;;;;;;33.40;20.20;;;1.60;99.90;;;;;;5074264;28;20201;-73
2022/12/01 06:45:36;;;;;;;33.77;20.83;;;1.60;99.90;;;;;;5073680;28;20208;-73
2022/12/01 06:48:03;;;;;;;33.10;20.43;;;1.50;99.90;;;;;;5074242;28;20289;-74
2022/12/01 06:50:30;;;;;;;35.07;21.73;;;1.50;99.90;;;;;;5074201;28;20568;-73
2022/12/01 06:52:58;;;;;;;33.83;21.30;;;1.50;99.90;;;;;;5074280;28;20278;-73
2022/12/01 06:55:25;;;;;;;34.77;20.23;;;1.50;99.90;;;;;;5073906;28;20197;-73
2022/12/01 06:57:51;;;;;;;34.33;20.37;;;1.60;99.90;;;;;;5074088;28;20201;-74
2022/12/01 07:00:19;;;;;;;37.63;21.37;;;1.60;99.90;;;;;;5073922;28;20242;-73
2022/12/01 07:02:45;;;;;;;36.53;22.10;;;1.70;99.90;;;;;;5073868;28;20251;-73
2022/12/01 07:05:13;;;;;;;42.80;23.07;;;1.70;99.90;;;;;;5075076;28;20197;-74
2022/12/01 07:07:39;;;;;;;31.67;20.83;;;1.80;99.90;;;;;;5077558;28;20267;-73
2022/12/01 07:10:10;;;;;;;33.60;21.87;;;1.80;99.90;;;;;;5077510;28;20197;-74
2022/12/01 07:12:37;;;;;;;34.23;20.37;;;1.80;99.90;;;;;;5077330;28;20232;-74
2022/12/01 07:15:05;;;;;;;31.30;20.60;;;1.80;99.90;;;;;;5077432;28;20234;-74
2022/12/01 07:17:32;;;;;;;34.07;21.43;;;1.80;99.90;;;;;;5077363;28;20205;-73
2022/12/01 07:19:59;;;;;;;34.93;20.87;;;1.80;99.90;;;;;;5077325;28;20205;-73
2022/12/01 07:22:25;;;;;;;34.60;21.30;;;1.80;99.90;;;;;;5077001;28;20667;-72
2022/12/01 07:24:52;;;;;;;32.20;20.77;;;1.80;99.90;;;;;;5077210;28;20201;-72
2022/12/01 07:27:20;;;;;;;35.47;21.13;;;1.80;99.90;;;;;;5077008;28;20247;-72
2022/12/01 07:29:47;;;;;;;33.83;21.67;;;1.90;99.90;;;;;;5077160;28;20239;-73
2022/12/01 07:32:15;;;;;;;33.23;20.70;;;2.00;99.90;;;;;;5076938;28;20630;-73
2022/12/01 07:34:41;;;;;;;33.90;20.87;;;2.00;99.90;;;;;;5076521;28;20224;-73
2022/12/01 07:37:08;;;;;;;35.40;21.03;;;1.90;99.90;;;;;;5076593;28;20200;-73
2022/12/01 07:39:34;;;;;;;33.53;20.70;;;2.00;99.90;;;;;;5076439;28;20193;-72
2022/12/01 07:42:01;;;;;;;33.20;20.47;;;2.00;99.90;;;;;;5076433;28;20197;-73
2022/12/01 07:44:29;;;;;;;31.67;20.13;;;2.00;99.90;;;;;;5076607;28;20193;-72
2022/12/01 07:46:56;;;;;;;33.67;20.43;;;2.00;99.90;;;;;;5076524;28;20201;-73
2022/12/01 07:49:22;;;;;;;33.63;21.30;;;2.10;99.90;;;;;;5076906;28;20201;-73
2022/12/01 07:51:49;;;;;;;31.30;19.83;;;2.10;99.90;;;;;;5076684;28;20197;-73
2022/12/01 07:54:18;;;;;;;30.30;19.57;;;2.20;99.90;;;;;;5076471;28;20709;-73
2022/12/01 07:56:45;;;;;;;31.57;18.87;;;2.20;99.90;;;;;;5076508;28;20657;-73
2022/12/01 07:59:12;;;;;;;30.43;19.07;;;2.30;99.90;;;;;;5076729;28;20258;-73
2022/12/01 08:01:40;;;;;;;29.80;19.73;;;2.30;99.90;;;;;;5076664;28;20201;-73
2022/12/01 08:04:07;;;;;;;29.00;18.80;;;2.40;99.90;;;;;;5076728;28;20205;-73
2022/12/01 08:06:33;;;;;;;31.60;19.40;;;2.40;99.90;;;;;;5076202;28;20228;-73
2022/12/01 08:09:00;;;;;;;29.47;19.13;;;2.40;99.90;;;;;;5075937;28;20196;-73
2022/12/01 08:11:29;;;;;;;29.07;18.47;;;2.40;99.90;;;;;;5076120;28;20197;-73
2022/12/01 08:13:56;;;;;;;31.13;19.07;;;2.40;99.90;;;;;;5076125;28;20229;-73
2022/12/01 08:16:24;;;;;;;29.43;19.47;;;2.50;99.90;;;;;;5074770;28;20215;-73
2022/12/01 08:18:53;;;;;;;29.13;19.30;;;2.60;99.90;;;;;;5075903;28;20606;-73
2022/12/01 08:21:21;;;;;;;26.50;17.87;;;2.60;99.90;;;;;;5075738;28;20200;-73
2022/12/01 08:23:52;;;;;;;29.50;18.60;;;2.70;99.90;;;;;;5076655;28;20259;-73
2022/12/01 08:26:19;;;;;;;25.83;17.17;;;2.70;99.90;;;;;;5076042;28;20201;-73
2022/12/01 08:28:46;;;;;;;27.30;17.83;;;2.90;99.90;;;;;;5076345;28;20198;-73
2022/12/01 08:31:15;;;;;;;27.40;18.53;;;3.00;99.90;;;;;;5075776;28;20195;-73
2022/12/01 08:33:42;;;;;;;25.10;17.73;;;3.00;99.90;;;;;;5075560;28;20278;-73
2022/12/01 08:36:10;;;;;;;26.53;17.23;;;3.10;99.90;;;;;;5075614;28;20211;-73
2022/12/01 08:38:37;;;;;;;23.97;16.97;;;3.20;99.90;;;;;;5075405;28;20725;-73
2022/12/01 08:41:05;;;;;;;23.30;16.37;;;3.20;99.90;;;;;;5075507;28;20231;-73
2022/12/01 08:43:32;;;;;;;24.70;17.33;;;3.30;99.90;;;;;;5075530;28;20198;-73
2022/12/01 08:45:59;;;;;;;24.87;17.23;;;3.30;99.90;;;;;;5075311;28;20204;-73
2022/12/01 08:48:28;;;;;;;25.70;17.47;;;3.30;99.90;;;;;;5075138;28;20199;-73
2022/12/01 08:51:02;;;;;;;25.87;16.77;;;3.40;99.90;;;;;;5075309;28;20221;-73
2022/12/01 08:53:30;;;;;;;25.17;16.50;;;3.50;99.90;;;;;;5075026;28;20226;-73
2022/12/01 08:56:00;;;;;;;22.43;15.97;;;3.60;99.90;;;;;;5074795;28;20195;-73
2022/12/01 08:58:28;;;;;;;24.30;17.57;;;3.70;99.90;;;;;;5074644;28;20635;-73
2022/12/01 09:01:01;;;;;;;21.10;16.07;;;3.70;99.90;;;;;;5074830;28;20199;-73
2022/12/01 09:03:28;;;;;;;22.73;15.93;;;3.60;99.90;;;;;;5074625;28;20719;-73
2022/12/01 09:05:54;;;;;;;21.97;16.23;;;3.70;99.90;;;;;;5074501;28;20200;-73
2022/12/01 09:08:34;;;;;;;21.80;16.03;;;3.70;99.90;;;;;;5074187;28;20234;-73
2022/12/01 09:11:04;;;;;;;23.80;16.13;;;3.80;99.90;;;;;;5074325;28;20197;-73
2022/12/01 09:13:32;;;;;;;22.07;15.73;;;3.80;99.90;;;;;;5074341;28;20231;-74
2022/12/01 09:16:01;;;;;;;25.97;16.80;;;3.90;99.90;;;;;;5074577;28;20599;-73
2022/12/01 09:18:28;;;;;;;24.70;15.77;;;3.80;99.90;;;;;;5074590;28;20200;-73
2022/12/01 09:20:55;;;;;;;23.07;15.97;;;3.90;99.90;;;;;;5073921;28;20200;-73
2022/12/01 09:23:22;;;;;;;20.97;15.40;;;4.10;99.90;;;;;;5074113;28;20717;-74
2022/12/01 09:25:48;;;;;;;21.33;15.60;;;4.00;99.90;;;;;;5075113;28;20237;-74
2022/12/01 09:28:17;;;;;;;21.87;15.77;;;4.00;99.90;;;;;;5075225;28;20204;-74
2022/12/01 09:30:44;;;;;;;21.77;16.17;;;4.20;99.90;;;;;;5075597;28;20200;-73
2022/12/01 09:33:12;;;;;;;24.83;16.57;;;4.40;99.90;;;;;;5073936;28;20634;-74
2022/12/01 09:35:38;;;;;;;21.77;15.80;;;4.70;99.90;;;;;;5074582;28;20201;-73
2022/12/01 09:38:05;;;;;;;20.20;14.87;;;4.60;99.90;;;;;;5074913;28;20671;-73
2022/12/01 09:40:36;;;;;;;22.27;15.67;;;4.70;99.90;;;;;;5073526;28;20193;-73
2022/12/01 09:43:16;;;;;;;23.83;15.93;;;5.00;99.90;;;;;;5073717;28;20621;-73
2022/12/01 09:45:50;;;;;;;21.03;15.40;;;5.10;99.90;;;;;;5073553;28;20278;-73
2022/12/01 09:48:25;;;;;;;21.60;15.73;;;5.00;99.90;;;;;;5073383;28;20268;-73
2022/12/01 09:50:52;;;;;;;24.17;15.63;;;4.80;99.90;;;;;;5073224;28;20196;-73
2022/12/01 09:53:23;;;;;;;22.30;15.80;;;4.60;99.90;;;;;;5073367;28;20246;-74
2022/12/01 09:55:50;;;;;;;23.03;16.73;;;4.60;99.90;;;;;;5073361;28;20201;-73
2022/12/01 09:58:21;;;;;;;21.23;16.20;;;4.70;99.90;;;;;;5073241;28;20193;-74
2022/12/01 10:00:51;;;;;;;22.53;15.73;;;4.70;99.90;;;;;;5073263;28;20196;-73
2022/12/01 10:03:27;;;;;;;20.40;14.93;;;4.80;99.90;;;;;;5073099;28;20201;-72
2022/12/01 10:05:58;;;;;;;23.03;16.40;;;4.80;99.90;;;;;;5073362;28;20208;-74
2022/12/01 10:08:29;;;;;;;24.90;16.13;;;4.90;99.90;;;;;;5073213;28;20205;-73
2022/12/01 10:11:00;;;;;;;20.40;14.87;;;4.90;99.90;;;;;;5073170;28;20216;-73
2022/12/01 10:13:28;;;;;;;21.30;15.43;;;5.00;99.90;;;;;;5072982;28;20225;-74
2022/12/01 10:16:07;;;;;;;25.47;16.07;;;5.10;99.90;;;;;;5072921;28;20651;-74
2022/12/01 10:18:47;;;;;;;23.77;16.27;;;5.30;99.90;;;;;;5072994;28;20193;-74
2022/12/01 10:21:23;;;;;;;20.60;15.63;;;5.60;99.90;;;;;;5073024;28;20201;-74
2022/12/01 10:24:20;;;;;;;19.97;15.20;;;5.80;99.90;;;;;;5072935;28;20574;-74
2022/12/01 10:26:54;;;;;;;22.60;15.87;;;6.00;99.90;;;;;;5073039;28;20608;-74
2022/12/01 10:29:28;;;;;;;22.57;16.33;;;6.40;99.90;;;;;;5072951;28;20201;-73
2022/12/01 10:31:59;;;;;;;20.70;15.50;;;6.70;99.90;;;;;;5072912;28;20292;-73
2022/12/01 10:34:29;;;;;;;21.90;15.50;;;8.40;99.90;;;;;;5072587;28;20282;-73
2022/12/01 10:36:56;;;;;;;18.87;14.93;;;10.10;99.90;;;;;;5072612;28;20208;-74
2022/12/01 10:39:28;;;;;;;26.43;15.97;;;11.20;99.90;;;;;;5072454;28;20197;-74
2022/12/01 10:42:01;;;;;;;19.10;15.37;;;12.30;99.90;;;;;;5073881;28;20232;-74
2022/12/01 10:44:28;;;;;;;18.90;15.30;;;12.60;99.90;;;;;;5073142;28;20657;-74
2022/12/01 10:46:57;;;;;;;18.95;15.63;;;11.70;99.90;;;;;;5072689;28;20200;-74
2022/12/01 10:49:38;;;;;;;18.93;15.93;;;11.10;99.90;;;;;;5072556;28;20197;-74
2022/12/01 10:52:05;;;;;;;18.27;15.50;;;10.10;99.90;;;;;;5072783;28;20201;-74
2022/12/01 10:54:35;;;;;;;19.83;16.33;;;9.20;99.90;;;;;;5072713;28;20284;-74
2022/12/01 10:57:02;;;;;;;19.10;16.40;;;8.30;99.90;;;;;;5072629;28;20200;-74
2022/12/01 10:59:35;;;;;;;21.27;17.07;;;7.90;99.90;;;;;;5072654;28;20262;-74
2022/12/01 11:02:13;;;;;;;21.60;16.53;;;7.40;99.90;;;;;;5072600;28;20185;-73
2022/12/01 11:04:44;;;;;;;25.50;15.93;;;7.10;99.90;;;;;;5072647;28;20261;-74
2022/12/01 11:07:20;;;;;;;19.63;15.77;;;6.80;99.90;;;;;;5072414;28;20233;-74
2022/12/01 11:09:58;;;;;;;20.57;16.20;;;6.50;99.90;;;;;;5072476;28;20193;-74
2022/12/01 11:12:25;;;;;;;22.60;16.93;;;6.40;99.90;;;;;;5072313;28;20197;-74
2022/12/01 11:14:55;;;;;;;21.87;17.07;;;6.20;99.90;;;;;;5072409;28;20224;-74
2022/12/01 11:17:30;;;;;;;22.27;16.67;;;5.90;99.90;;;;;;5072318;28;20357;-74
2022/12/01 11:19:57;;;;;;;24.97;17.43;;;6.00;99.90;;;;;;5072337;28;20211;-74
2022/12/01 11:22:31;;;;;;;21.93;16.30;;;6.10;99.90;;;;;;5072161;28;20675;-74
2022/12/01 11:25:00;;;;;;;24.07;16.73;;;6.10;99.90;;;;;;5072446;28;20216;-74
2022/12/01 11:27:31;;;;;;;21.13;16.10;;;6.40;99.90;;;;;;5072114;28;20201;-74
2022/12/01 11:30:03;;;;;;;21.23;15.40;;;6.70;99.90;;;;;;5072012;28;20789;-74
2022/12/01 11:32:34;;;;;;;20.83;15.87;;;7.00;99.90;;;;;;5072073;28;20231;-74
2022/12/01 11:35:04;;;;;;;21.93;16.00;;;7.50;99.90;;;;;;5071948;28;20225;-74
2022/12/01 11:37:36;;;;;;;20.37;15.23;;;7.80;99.90;;;;;;5072810;28;20197;-74
2022/12/01 11:40:13;;;;;;;20.60;16.00;;;8.00;99.90;;;;;;5072176;28;20197;-73
2022/12/01 11:42:40;;;;;;;22.23;15.80;;;7.90;99.90;;;;;;5072198;28;20199;-73
2022/12/01 11:45:23;;;;;;;22.33;16.60;;;7.90;99.90;;;;;;5072178;28;20346;-74
2022/12/01 11:48:04;;;;;;;22.47;16.77;;;8.00;99.90;;;;;;5071961;28;20387;-73
2022/12/01 11:50:33;;;;;;;21.07;16.70;;;8.00;99.90;;;;;;5072326;28;20207;-74
2022/12/01 11:52:59;;;;;;;19.37;15.17;;;8.00;99.90;;;;;;5075476;28;20201;-73
2022/12/01 11:55:27;;;;;;;22.73;16.73;;;7.90;99.90;;;;;;5075492;28;20231;-73
2022/12/01 11:57:57;;;;;;;22.47;15.63;;;7.60;99.90;;;;;;5075313;28;20201;-72
2022/12/01 12:00:26;;;;;;;21.83;15.73;;;7.40;99.90;;;;;;5075218;28;20205;-73
2022/12/01 12:03:15;;;;;;;21.50;15.80;;;7.30;99.90;;;;;;5075193;28;20204;-73
2022/12/01 12:06:20;;;;;;;22.00;16.43;;;7.20;99.90;;;;;;5075177;28;20548;-73
2022/12/01 12:09:02;;;;;;;18.90;14.93;;;7.30;99.90;;;;;;5069397;28;20208;-73
2022/12/01 12:11:42;;;;;;;19.07;15.13;;;7.20;99.90;;;;;;5075346;28;20250;-73
2022/12/01 12:14:23;;;;;;;21.00;16.60;;;7.10;99.90;;;;;;5075070;28;20232;-73
2022/12/01 12:17:05;;;;;;;21.07;16.23;;;7.20;99.90;;;;;;5075015;28;20326;-73
2022/12/01 12:19:52;;;;;;;19.50;15.57;;;7.30;99.90;;;;;;5074886;28;20197;-73
2022/12/01 12:22:28;;;;;;;20.13;15.50;;;7.40;99.90;;;;;;5074917;28;20246;-73
2022/12/01 12:25:10;;;;;;;21.27;16.50;;;7.80;99.90;;;;;;5074777;28;20204;-73
2022/12/01 12:27:47;;;;;;;25.93;18.13;;;8.10;99.90;;;;;;5074744;28;20254;-73
2022/12/01 12:30:21;;;;;;;27.90;17.00;;;8.10;99.90;;;;;;5074755;28;20726;-73
2022/12/01 12:33:16;;;;;;;33.17;17.20;;;8.30;99.90;;;;;;5074726;28;20201;-73
2022/12/01 12:35:52;;;;;;;22.60;16.47;;;8.20;99.90;;;;;;5074366;28;20258;-73
2022/12/01 12:38:42;;;;;;;28.80;16.20;;;7.80;99.90;;;;;;5074771;28;20208;-74
2022/12/01 12:41:21;;;;;;;22.50;16.90;;;7.40;99.90;;;;;;5074730;28;20197;-74
2022/12/01 12:43:58;;;;;;;22.93;15.70;;;7.30;99.90;;;;;;5074644;28;20196;-74
2022/12/01 12:46:33;;;;;;;22.30;16.67;;;7.30;99.90;;;;;;5074773;28;20200;-74
2022/12/01 12:49:21;;;;;;;23.33;16.90;;;7.20;99.90;;;;;;5074591;28;20266;-74
2022/12/01 12:51:58;;;;;;;21.97;16.33;;;7.20;99.90;;;;;;5074490;28;20639;-74
2022/12/01 12:54:29;;;;;;;20.83;15.90;;;7.10;99.90;;;;;;5074196;28;20275;-74